Time;durP1;ratioP1;P1;durP2;ratioP2;P2;SDS_P1;SDS_P2;PMS_P1;PMS_P2;Temp;Humidity;BMP_temperature;BMP_pressure;BME280_temperature;BME280_humidity;BME280_pressure;Samples;Min_cycle;Max_cycle;Signal;HPM_P1;HPM_P2
2024/01/10 00:01:10;;;;;;;4.28;3.55;;;;;;;;;;5066643;28;20098;-26
2024/01/10 00:03:37;;;;;;;4.40;3.45;;;;;;;;;;5072317;28;20547;-26
2024/01/10 00:06:05;;;;;;;4.15;3.60;;;;;;;;;;5071959;28;20045;-28
2024/01/10 00:08:32;;;;;;;4.72;3.88;;;;;;;;;;5072338;28;20448;-26
2024/01/10 00:10:59;;;;;;;3.80;3.40;;;;;;;;;;5071907;28;20106;-26
2024/01/10 00:13:27;;;;;;;4.22;3.60;;;;;;;;;;5072341;28;20412;-26
2024/01/10 00:15:55;;;;;;;5.57;3.80;;;;;;;;;;5067051;28;20052;-26
2024/01/10 00:18:23;;;;;;;4.53;3.22;;;18.30;45.50;;;;;;5052223;28;20378;-26
2024/01/10 00:20:53;;;;;;;4.57;3.45;;;;;;;;;;5051968;28;20437;-25
2024/01/10 00:23:20;;;;;;;3.88;3.22;;;;;;;;;;5052486;28;20383;-26
2024/01/10 00:25:47;;;;;;;4.28;3.20;;;;;;;;;;5051859;28;20053;-26
2024/01/10 00:28:16;;;;;;;4.18;3.28;;;;;;;;;;5051752;28;20567;-26
2024/01/10 00:30:43;;;;;;;4.30;3.60;;;;;;;;;;5051834;28;20048;-31
2024/01/10 00:33:11;;;;;;;4.30;3.30;;;;;;;;;;5064609;28;20044;-26
2024/01/10 00:35:39;;;;;;;4.53;3.28;;;;;;;;;;5071819;28;20098;-26
2024/01/10 00:38:06;;;;;;;5.45;3.40;;;;;;;;;;5070820;28;20048;-26
2024/01/10 00:40:34;;;;;;;4.65;3.10;;;;;;;;;;5071850;28;20057;-29
2024/01/10 00:43:01;;;;;;;4.25;3.30;;;;;;;;;;5071663;28;20543;-26
2024/01/10 00:45:28;;;;;;;4.35;3.15;;;;;;;;;;5071876;28;20051;-27
2024/01/10 00:47:55;;;;;;;3.75;3.08;;;;;;;;;;5070923;28;20048;-26
2024/01/10 00:50:22;;;;;;;4.05;2.92;;;;;;;;;;5051570;28;20040;-27
2024/01/10 00:52:51;;;;;;;5.00;3.53;;;;;;;;;;5051660;28;20091;-26
2024/01/10 00:55:18;;;;;;;4.38;3.15;;;;;;;;;;5051756;28;20045;-26
2024/01/10 00:57:45;;;;;;;3.47;2.88;;;;;;;;;;5051665;28;20493;-26
2024/01/10 01:00:13;;;;;;;4.13;3.30;;;18.50;45.00;;;;;;5051287;28;20045;-30
2024/01/10 01:02:41;;;;;;;3.95;2.88;;;;;;;;;;5051909;28;20577;-26
2024/01/10 01:05:08;;;;;;;4.43;3.40;;;;;;;;;;5052283;28;20500;-27
2024/01/10 01:07:35;;;;;;;4.53;3.22;;;;;;;;;;5051650;28;20049;-26
2024/01/10 01:10:04;;;;;;;3.88;2.92;;;;;;;;;;5051604;28;20057;-29
2024/01/10 01:12:31;;;;;;;3.58;2.70;;;;;;;;;;5051535;28;20494;-26
2024/01/10 01:14:58;;;;;;;4.45;2.90;;;;;;;;;;5051296;28;20490;-26
2024/01/10 01:17:25;;;;;;;3.38;2.75;;;;;;;;;;5051241;28;20049;-26
2024/01/10 01:19:52;;;;;;;3.63;2.88;;;;;;;;;;5051542;28;20049;-26
2024/01/10 01:22:19;;;;;;;3.28;2.72;;;;;;;;;;5052763;28;20056;-26
2024/01/10 01:24:47;;;;;;;4.20;3.13;;;;;;;;;;5051236;28;20045;-30
2024/01/10 01:27:15;;;;;;;3.90;3.00;;;18.70;44.90;;;;;;5051292;28;20053;-26
2024/01/10 01:29:42;;;;;;;4.75;3.30;;;;;;;;;;5058811;28;20098;-25
2024/01/10 01:32:10;;;;;;;4.30;3.00;;;;;;;;;;5071365;28;20044;-27
2024/01/10 01:34:37;;;;;;;4.05;3.00;;;;;;;;;;5071480;28;20109;-26
2024/01/10 01:37:05;;;;;;;2.80;2.60;;;;;;;;;;5070765;28;20044;-26
2024/01/10 01:39:32;;;;;;;3.50;2.70;;;;;;;;;;5053152;28;20052;-26
2024/01/10 01:41:59;;;;;;;3.58;2.80;;;;;;;;;;5051467;28;20110;-27
2024/01/10 01:44:27;;;;;;;3.50;2.90;;;;;;;;;;5051289;28;20049;-26
2024/01/10 01:46:54;;;;;;;3.78;3.10;;;;;;;;;;5062705;28;20095;-26
2024/01/10 01:49:22;;;;;;;4.32;2.90;;;;;;;;;;5071862;28;20056;-29
2024/01/10 01:51:49;;;;;;;4.03;2.70;;;;;;;;;;5073134;28;20417;-26
2024/01/10 01:54:16;;;;;;;3.78;2.97;;;;;;;;;;5072422;28;20106;-27
2024/01/10 01:56:43;;;;;;;3.83;3.00;;;;;;;;;;5054588;28;20132;-26
2024/01/10 01:59:10;;;;;;;4.85;3.30;;;;;;;;;;5054861;28;20052;-26
2024/01/10 02:01:39;;;;;;;3.90;3.20;;;;;;;;;;5054299;28;20430;-26
2024/01/10 02:04:06;;;;;;;3.50;3.00;;;;;;;;;;5054405;28;20539;-29
2024/01/10 02:06:34;;;;;;;3.88;2.92;;;;;;;;;;5054449;28;20128;-26
2024/01/10 02:09:01;;;;;;;4.68;3.03;;;;;;;;;;5054537;28;20387;-26
2024/01/10 02:11:28;;;;;;;3.55;2.72;;;;;;;;;;5055508;28;20103;-26
2024/01/10 02:13:55;;;;;;;6.07;3.22;;;;;;;;;;5054698;28;20056;-26
2024/01/10 02:16:22;;;;;;;5.00;3.40;;;;;;;;;;5054237;28;20049;-32
2024/01/10 02:18:51;;;;;;;4.13;2.92;;;19.10;44.10;;;;;;5054378;28;20048;-35
2024/01/10 02:21:18;;;;;;;3.55;3.00;;;;;;;;;;5053914;28;20550;-35
2024/01/10 02:23:45;;;;;;;3.95;2.90;;;;;;;;;;5054035;28;20509;-32
2024/01/10 02:26:13;;;;;;;6.03;2.97;;;19.00;44.10;;;;;;5063658;28;20051;-32
2024/01/10 02:28:40;;;;;;;3.92;3.13;;;;;;;;;;5056231;28;20094;-32
2024/01/10 02:31:07;;;;;;;3.80;3.22;;;19.40;74.90;;;;;;5054037;28;20056;-32
2024/01/10 02:33:34;;;;;;;3.83;3.20;;;;;;;;;;5053770;28;20076;-33
2024/01/10 02:36:01;;;;;;;3.80;3.30;;;;;;;;;;5054673;28;20461;-29
2024/01/10 02:38:28;;;;;;;3.90;3.00;;;;;;;;;;5073844;28;20055;-31
2024/01/10 02:40:56;;;;;;;3.78;3.03;;;;;;;;;;5073893;28;20056;-33
2024/01/10 02:43:24;;;;;;;4.63;3.28;;;;;;;;;;5069965;28;20041;-30
2024/01/10 02:45:52;;;;;;;4.97;3.08;;;;;;;;;;5073453;28;20041;-32
2024/01/10 02:48:19;;;;;;;3.75;2.97;;;;;;;;;;5073903;28;20049;-32
2024/01/10 02:50:46;;;;;;;3.83;3.10;;;;;;;;;;5069943;28;20406;-34
2024/01/10 02:53:13;;;;;;;3.38;3.05;;;;;;;;;;5073687;28;20052;-32
2024/01/10 02:55:40;;;;;;;3.50;2.50;;;;;;;;;;5073276;28;20550;-33
2024/01/10 02:58:08;;;;;;;4.22;3.28;;;;;;;;;;5073838;28;20056;-29
2024/01/10 03:00:37;;;;;;;4.63;3.40;;;19.10;43.70;;;;;;5071303;28;20080;-31
2024/01/10 03:03:04;;;;;;;4.10;3.13;;;;;;;;;;5073676;28;20067;-30
2024/01/10 03:05:31;;;;;;;4.03;3.13;;;;;;;;;;5073213;28;20102;-33
2024/01/10 03:07:58;;;;;;;4.07;3.15;;;;;;;;;;5073293;28;20044;-31
2024/01/10 03:10:26;;;;;;;3.97;3.10;;;;;;;;;;5073082;28;20053;-33
2024/01/10 03:12:53;;;;;;;4.65;3.47;;;;;;;;;;5073351;28;20048;-33
2024/01/10 03:15:20;;;;;;;4.00;3.17;;;;;;;;;;5073165;28;20041;-30
2024/01/10 03:17:48;;;;;;;4.13;3.22;;;19.10;42.30;;;;;;5071368;28;20463;-33
2024/01/10 03:20:15;;;;;;;3.97;3.13;;;;;;;;;;5072999;28;20048;-33
2024/01/10 03:22:42;;;;;;;4.82;3.38;;;;;;;;;;5072778;28;20048;-28
2024/01/10 03:25:09;;;;;;;3.60;2.88;;;19.70;74.90;;;;;;5072757;28;20079;-35
2024/01/10 03:27:36;;;;;;;3.63;2.83;;;;;;;;;;5073315;28;20132;-28
2024/01/10 03:30:04;;;;;;;4.43;3.50;;;;;;;;;;5072851;28;20501;-34
2024/01/10 03:32:31;;;;;;;4.47;3.42;;;;;;;;;;5070599;28;20056;-32
2024/01/10 03:34:59;;;;;;;4.35;3.20;;;19.10;43.60;;;;;;5071276;28;20068;-29
2024/01/10 03:37:27;;;;;;;3.97;3.13;;;;;;;;;;5072241;28;20052;-28
2024/01/10 03:39:53;;;;;;;5.32;3.28;;;19.20;74.00;;;;;;5072735;28;20090;-33
2024/01/10 03:42:21;;;;;;;4.13;3.00;;;;;;;;;;5072820;28;20465;-33
2024/01/10 03:44:48;;;;;;;4.95;3.30;;;;;;;;;;5072253;28;20045;-33
2024/01/10 03:47:15;;;;;;;3.80;3.10;;;;;;;;;;5072612;28;20040;-31
2024/01/10 03:49:42;;;;;;;4.47;3.40;;;;;;;;;;5067056;28;20044;-35
2024/01/10 03:52:10;;;;;;;4.45;3.58;;;;;;;;;;5052482;28;20098;-29
2024/01/10 03:54:38;;;;;;;4.88;3.28;;;;;;;;;;5052164;28;20048;-33
2024/01/10 03:57:06;;;;;;;4.40;3.40;;;;;;;;;;5052550;28;20556;-32
2024/01/10 03:59:33;;;;;;;3.83;3.05;;;;;;;;;;5052439;28;20055;-35
2024/01/10 04:02:01;;;;;;;4.30;3.15;;;;;;;;;;5052274;28;20498;-33
2024/01/10 04:04:29;;;;;;;4.53;3.28;;;;;;;;;;5050882;28;20119;-31
2024/01/10 04:06:56;;;;;;;4.93;3.42;;;;;;;;;;5053494;28;20053;-30
2024/01/10 04:09:24;;;;;;;4.00;3.20;;;19.10;43.80;;;;;;5052323;28;20049;-34
2024/01/10 04:11:51;;;;;;;3.83;3.22;;;;;;;;;;5051705;28;20048;-36
2024/01/10 04:14:18;;;;;;;4.50;3.40;;;;;;;;;;5052119;28;20052;-32
2024/01/10 04:16:45;;;;;;;3.92;3.22;;;;;;;;;;5051917;28;20091;-31
2024/01/10 04:19:12;;;;;;;4.70;3.60;;;;;;;;;;5065688;28;20053;-31
2024/01/10 04:21:40;;;;;;;3.95;3.20;;;;;;;;;;5070279;28;20181;-32
2024/01/10 04:24:07;;;;;;;3.60;3.00;;;;;;;;;;5052005;28;20048;-32
2024/01/10 04:26:36;;;;;;;4.18;3.50;;;;;;;;;;5051782;28;20049;-31
2024/01/10 04:29:03;;;;;;;3.83;3.13;;;;;;;;;;5051900;28;20493;-32
2024/01/10 04:31:30;;;;;;;3.65;3.08;;;;;;;;;;5051795;28;20106;-34
2024/01/10 04:33:57;;;;;;;3.83;3.10;;;;;;;;;;5051966;28;20056;-32
2024/01/10 04:36:24;;;;;;;3.80;3.13;;;;;;;;;;5055884;28;20044;-32
2024/01/10 04:38:51;;;;;;;4.80;3.63;;;19.30;73.90;;;;;;5062526;28;20464;-35
2024/01/10 04:41:18;;;;;;;3.88;3.13;;;;;;;;;;5051565;28;20052;-33
2024/01/10 04:43:47;;;;;;;3.85;3.05;;;19.20;43.10;;;;;;5052214;28;20444;-32
2024/01/10 04:46:14;;;;;;;4.05;3.25;;;;;;;;;;5057316;28;20044;-29
2024/01/10 04:48:41;;;;;;;4.03;3.40;;;;;;;;;;5071844;28;20053;-31
2024/01/10 04:51:08;;;;;;;5.00;3.15;;;;;;;;;;5071599;28;20052;-31
2024/01/10 04:53:35;;;;;;;4.18;2.92;;;19.40;54.90;;;;;;5071748;28;20048;-28
2024/01/10 04:56:02;;;;;;;3.88;3.10;;;;;;;;;;5058168;28;20049;-31
2024/01/10 04:58:29;;;;;;;3.53;2.97;;;;;;;;;;5051837;28;20459;-28
2024/01/10 05:00:58;;;;;;;4.13;3.22;;;;;;;;;;5051485;28;20080;-30
2024/01/10 05:03:25;;;;;;;5.90;3.53;;;;;;;;;;5050285;28;20057;-27
2024/01/10 05:05:52;;;;;;;4.38;3.25;;;;;;;;;;5051375;28;20460;-32
2024/01/10 05:08:20;;;;;;;4.00;3.15;;;;;;;;;;5051299;28;20049;-28
2024/01/10 05:10:47;;;;;;;4.20;3.10;;;;;;;;;;5052350;28;20128;-30
2024/01/10 05:13:14;;;;;;;4.82;3.42;;;;;;;;;;5071467;28;20053;-30
2024/01/10 05:15:41;;;;;;;4.80;3.42;;;;;;;;;;5071358;28;20053;-30
2024/01/10 05:18:10;;;;;;;4.10;3.15;;;;;;;;;;5071255;28;20559;-28
2024/01/10 05:20:37;;;;;;;3.95;3.20;;;;;;;;;;5071226;28;20052;-31
2024/01/10 05:23:05;;;;;;;4.13;3.40;;;;;;;;;;5062601;28;20061;-29
2024/01/10 05:25:32;;;;;;;5.75;3.83;;;;;;;;;;5065491;28;20052;-28
2024/01/10 05:27:59;;;;;;;4.55;3.50;;;;;;;;;;5063497;28;20041;-26
2024/01/10 05:30:26;;;;;;;4.13;3.17;;;;;;;;;;5065778;28;20102;-27
2024/01/10 05:32:53;;;;;;;5.32;3.78;;;;;;;;;;5065627;28;20044;-27
2024/01/10 05:35:22;;;;;;;5.18;3.53;;;;;;;;;;5061928;28;20174;-27
2024/01/10 05:37:49;;;;;;;4.32;3.40;;;18.90;73.40;;;;;;5070737;28;20497;-26
2024/01/10 05:40:16;;;;;;;4.20;3.28;;;19.40;51.20;;;;;;5073879;28;20086;-27
2024/01/10 05:42:43;;;;;;;6.68;3.10;;;;;;;;;;5074887;28;20440;-26
2024/01/10 05:45:11;;;;;;;3.95;3.20;;;;;;;;;;5074635;28;20551;-27
2024/01/10 05:47:38;;;;;;;4.93;3.40;;;;;;;;;;5074820;28;20044;-27
2024/01/10 05:50:06;;;;;;;5.82;3.60;;;;;;;;;;5074429;28;20059;-28
2024/01/10 05:52:34;;;;;;;4.18;3.17;;;;;;;;;;5074962;28;20106;-27
2024/01/10 05:55:02;;;;;;;4.50;3.20;;;19.50;73.10;;;;;;5056577;28;20044;-27
2024/01/10 05:57:30;;;;;;;4.65;3.42;;;19.40;65.50;;;;;;5054562;28;20486;-26
2024/01/10 05:59:57;;;;;;;3.92;2.95;;;;;;;;;;5054367;28;20045;-31
2024/01/10 06:02:24;;;;;;;4.47;3.10;;;;;;;;;;5054439;28;20102;-27
2024/01/10 06:04:51;;;;;;;4.72;3.10;;;;;;;;;;5054619;28;20053;-30
2024/01/10 06:07:18;;;;;;;3.70;2.95;;;;;;;;;;5054741;28;20456;-26
2024/01/10 06:09:47;;;;;;;4.95;3.35;;;;;;;;;;5059993;28;20481;-26
2024/01/10 06:12:14;;;;;;;3.95;3.25;;;;;;;;;;5074193;28;20083;-26
2024/01/10 06:14:41;;;;;;;4.22;3.30;;;;;;;;;;5074207;28;20063;-28
2024/01/10 06:17:09;;;;;;;3.65;3.10;;;;;;;;;;5074197;28;20044;-27
2024/01/10 06:19:35;;;;;;;3.75;2.92;;;19.50;52.50;;;;;;5074361;28;20048;-30
2024/01/10 06:22:03;;;;;;;5.47;3.22;;;;;;;;;;5074426;28;20078;-32
2024/01/10 06:24:30;;;;;;;3.53;3.08;;;;;;;;;;5060880;28;20053;-30
2024/01/10 06:26:59;;;;;;;4.22;3.30;;;19.40;41.90;;;;;;5066520;28;20094;-28
2024/01/10 06:29:26;;;;;;;3.95;3.25;;;;;;;;;;5073969;28;20087;-28
2024/01/10 06:31:53;;;;;;;4.40;3.10;;;;;;;;;;5074186;28;20044;-30
2024/01/10 06:34:20;;;;;;;3.67;3.17;;;;;;;;;;5074099;28;20555;-30
2024/01/10 06:36:47;;;;;;;4.75;2.90;;;;;;;;;;5072504;28;20045;-28
2024/01/10 06:39:15;;;;;;;3.75;2.90;;;;;;;;;;5074092;28;20127;-29
2024/01/10 06:41:43;;;;;;;6.22;3.65;;;;;;;;;;5072938;28;20052;-29
2024/01/10 06:44:12;;;;;;;4.13;2.97;;;;;;;;;;5066384;28;20059;-30
2024/01/10 06:46:39;;;;;;;5.25;3.25;;;;;;;;;;5069461;28;20045;-28
2024/01/10 06:49:07;;;;;;;4.65;3.40;;;;;;;;;;5056105;28;20087;-30
2024/01/10 06:51:34;;;;;;;4.05;3.22;;;;;;;;;;5052984;28;20044;-32
2024/01/10 06:54:03;;;;;;;3.80;3.30;;;;;;;;;;5053773;28;20053;-27
2024/01/10 06:56:30;;;;;;;4.63;3.45;;;;;;;;;;5053343;28;20132;-31
2024/01/10 06:58:58;;;;;;;4.72;3.70;;;;;;;;;;5053146;28;20049;-29
2024/01/10 07:01:26;;;;;;;4.07;3.40;;;;;;;;;;5053491;28;20056;-28
2024/01/10 07:03:54;;;;;;;3.85;3.30;;;;;;;;;;5053750;28;20106;-28
2024/01/10 07:06:21;;;;;;;4.22;3.28;;;;;;;;;;5053814;28;20049;-27
2024/01/10 07:08:49;;;;;;;5.05;3.83;;;;;;;;;;5073307;28;20068;-30
2024/01/10 07:11:16;;;;;;;6.03;3.50;;;;;;;;;;5066834;28;20041;-29
2024/01/10 07:13:43;;;;;;;4.78;3.70;;;;;;;;;;5073163;28;20056;-28
2024/01/10 07:16:10;;;;;;;4.05;3.55;;;;;;;;;;5073270;28;20051;-29
2024/01/10 07:18:40;;;;;;;4.90;3.63;;;;;;;;;;5073032;28;20106;-28
2024/01/10 07:21:09;;;;;;;6.20;3.72;;;;;;;;;;5073025;28;20053;-31
2024/01/10 07:23:38;;;;;;;6.00;3.65;;;;;;;;;;5072950;28;20432;-27
2024/01/10 07:26:05;;;;;;;3.92;3.22;;;;;;;;;;5072834;28;20481;-30
2024/01/10 07:28:33;;;;;;;4.30;3.30;;;;;;;;;;5070779;28;20052;-30
2024/01/10 07:31:02;;;;;;;4.35;3.33;;;;;;;;;;5052642;28;20099;-28
2024/01/10 07:33:30;;;;;;;4.50;3.63;;;;;;;;;;5053186;28;20491;-30
2024/01/10 07:35:58;;;;;;;4.65;3.33;;;19.90;41.60;;;;;;5053069;28;20103;-28
2024/01/10 07:38:25;;;;;;;5.55;3.63;;;;;;;;;;5063102;28;20125;-30
2024/01/10 07:40:52;;;;;;;4.78;3.70;;;;;;;;;;5072721;28;20049;-29
2024/01/10 07:43:19;;;;;;;6.18;3.65;;;;;;;;;;5071299;28;20563;-26
2024/01/10 07:45:47;;;;;;;6.00;3.65;;;;;;;;;;5069857;28;20036;-26
2024/01/10 07:48:14;;;;;;;5.40;3.60;;;;;;;;;;5065285;28;20641;-26
2024/01/10 07:50:41;;;;;;;5.47;3.40;;;20.60;72.10;;;;;;5071998;28;20123;-26
2024/01/10 07:53:09;;;;;;;5.53;3.63;;;20.40;41.00;;;;;;5072100;28;20110;-26
2024/01/10 07:55:36;;;;;;;6.35;3.80;;;;;;;;;;5072064;28;20044;-26
2024/01/10 07:58:05;;;;;;;4.80;3.10;;;;;;;;;;5072669;28;20447;-27
2024/01/10 08:00:32;;;;;;;6.40;3.90;;;;;;;;;;5063093;28;20095;-26
2024/01/10 08:02:59;;;;;;;7.03;3.42;;;;;;;;;;5062756;28;20072;-26
2024/01/10 08:05:26;;;;;;;5.53;3.42;;;;;;;;;;5061299;28;20132;-27
2024/01/10 08:07:54;;;;;;;4.75;3.30;;;;;;;;;;5062510;28;20075;-26
2024/01/10 08:10:22;;;;;;;5.13;3.80;;;;;;;;;;5062662;28;20127;-28
2024/01/10 08:12:52;;;;;;;4.60;3.53;;;;;;;;;;5062095;28;20049;-27
2024/01/10 08:15:20;;;;;;;5.85;3.55;;;;;;;;;;5060591;28;20045;-27
2024/01/10 08:17:47;;;;;;;5.05;3.55;;;;;;;;;;5060645;28;20128;-27
2024/01/10 08:20:19;;;;;;;4.82;3.50;;;;;;;;;;5061362;28;20515;-27
2024/01/10 08:22:46;;;;;;;5.38;3.53;;;;;;;;;;5051525;28;20048;-26
2024/01/10 08:25:15;;;;;;;5.28;3.38;;;;;;;;;;5051857;28;20133;-26
2024/01/10 08:27:45;;;;;;;5.15;3.47;;;21.20;39.90;;;;;;5052080;28;20049;-26
2024/01/10 08:30:12;;;;;;;5.75;3.83;;;;;;;;;;5051110;28;20045;-29
2024/01/10 08:32:39;;;;;;;6.03;3.50;;;;;;;;;;5061360;28;20045;-26
2024/01/10 08:35:07;;;;;;;7.00;3.85;;;;;;;;;;5057262;28;20106;-26
2024/01/10 08:37:35;;;;;;;4.82;3.53;;;;;;;;;;5059769;28;20131;-28
2024/01/10 08:40:07;;;;;;;6.15;3.72;;;;;;;;;;5059546;28;20095;-26
2024/01/10 08:42:34;;;;;;;7.00;4.00;;;;;;;;;;5051840;28;20071;-26
2024/01/10 08:45:03;;;;;;;5.95;3.90;;;21.20;40.80;;;;;;5051723;28;20602;-27
2024/01/10 08:47:32;;;;;;;5.90;3.80;;;21.60;48.90;;;;;;5068159;28;20055;-30
2024/01/10 08:49:59;;;;;;;5.18;4.00;;;21.20;71.60;;;;;;5070743;28;20051;-26
2024/01/10 08:52:26;;;;;;;6.80;3.83;;;;;;;;;;5071324;28;20596;-26
2024/01/10 08:54:53;;;;;;;6.50;4.05;;;;;;;;;;5065594;28;20070;-26
2024/01/10 08:57:20;;;;;;;6.93;4.35;;;;;;;;;;5061664;28;20048;-28
2024/01/10 08:59:47;;;;;;;7.80;4.63;;;;;;;;;;5065233;28;20056;-26
2024/01/10 09:02:15;;;;;;;7.35;4.43;;;21.10;40.70;;;;;;5063923;28;20049;-29
2024/01/10 09:04:42;;;;;;;7.82;3.95;;;;;;;;;;5065839;28;20113;-28
2024/01/10 09:07:10;;;;;;;7.07;4.50;;;;;;;;;;5063630;28;20044;-26
2024/01/10 09:09:37;;;;;;;5.25;4.00;;;;;;;;;;5066705;28;20115;-26
2024/01/10 09:12:05;;;;;;;7.28;4.45;;;;;;;;;;5075523;28;20109;-26
2024/01/10 09:14:32;;;;;;;4.90;3.30;;;;;;;;;;5075473;28;20417;-26
2024/01/10 09:17:02;;;;;;;5.45;3.97;;;;;;;;;;5075324;28;20052;-27
2024/01/10 09:19:31;;;;;;;5.85;3.85;;;;;;;;;;5075423;28;20076;-26
2024/01/10 09:21:58;;;;;;;6.50;4.35;;;;;;;;;;5065570;28;20473;-34
2024/01/10 09:24:26;;;;;;;7.28;4.63;;;;;;;;;;5056906;28;20049;-32
2024/01/10 09:26:53;;;;;;;7.28;4.28;;;;;;;;;;5055183;28;20132;-28
2024/01/10 09:29:20;;;;;;;5.78;3.88;;;;;;;;;;5055176;28;20045;-35
2024/01/10 09:31:47;;;;;;;6.70;4.05;;;;;;;;;;5055155;28;20045;-31
2024/01/10 09:34:15;;;;;;;6.85;4.45;;;;;;;;;;5055148;28;20167;-26
2024/01/10 09:36:43;;;;;;;5.38;4.35;;;;;;;;;;5061670;28;20048;-26
2024/01/10 09:39:13;;;;;;;7.60;4.70;;;;;;;;;;5069062;28;20048;-26
2024/01/10 09:41:44;;;;;;;9.27;4.70;;;21.00;40.20;;;;;;5054704;28;20452;-26
2024/01/10 09:44:11;;;;;;;8.07;4.75;;;;;;;;;;5055243;28;20049;-26
2024/01/10 09:46:38;;;;;;;7.40;4.60;;;20.90;70.50;;;;;;5064219;28;20048;-26
2024/01/10 09:49:05;;;;;;;6.50;4.32;;;;;;;;;;5075266;28;20052;-25
2024/01/10 09:51:32;;;;;;;6.47;4.30;;;;;;;;;;5071002;28;20080;-26
2024/01/10 09:54:01;;;;;;;9.25;4.90;;;;;;;;;;5063714;28;20095;-26
2024/01/10 09:56:28;;;;;;;5.70;4.00;;;;;;;;;;5063210;28;20068;-31
2024/01/10 09:58:55;;;;;;;8.45;4.50;;;;;;;;;;5063032;28;20107;-27
2024/01/10 10:01:22;;;;;;;6.20;4.32;;;;;;;;;;5062224;28;20575;-27
2024/01/10 10:03:49;;;;;;;8.68;4.35;;;21.10;70.80;;;;;;5062982;28;20049;-28
2024/01/10 10:06:16;;;;;;;7.35;3.97;;;;;;;;;;5060057;28;20454;-28
2024/01/10 10:08:43;;;;;;;7.53;3.78;;;21.10;70.70;;;;;;5064305;28;20102;-28
2024/01/10 10:11:14;;;;;;;6.78;4.00;;;;;;;;;;5060835;28;20106;-29
2024/01/10 10:13:41;;;;;;;6.60;3.80;;;;;;;;;;5062520;28;20271;-30
2024/01/10 10:16:09;;;;;;;6.45;4.03;;;;;;;;;;5063301;28;20045;-28
2024/01/10 10:18:36;;;;;;;5.80;3.72;;;;;;;;;;5063133;28;20044;-28
2024/01/10 10:21:11;;;;;;;6.00;4.03;;;21.10;37.40;;;;;;5062005;28;20045;-29
2024/01/10 10:23:38;;;;;;;5.05;3.78;;;;;;;;;;5063373;28;20443;-31
2024/01/10 10:26:13;;;;;;;4.88;3.63;;;;;;;;;;5053950;28;20567;-29
2024/01/10 10:28:42;;;;;;;8.15;3.97;;;21.10;40.80;;;;;;5054024;28;20502;-34
2024/01/10 10:31:09;;;;;;;7.05;3.88;;;;;;;;;;5053964;28;20137;-33
2024/01/10 10:33:36;;;;;;;6.55;3.50;;;21.20;55.10;;;;;;5057608;28;20064;-31
2024/01/10 10:36:04;;;;;;;7.32;3.80;;;;;;;;;;5064507;28;20551;-29
2024/01/10 10:38:31;;;;;;;6.03;3.63;;;;;;;;;;5073079;28;20662;-27
2024/01/10 10:40:58;;;;;;;5.95;3.30;;;;;;;;;;5073653;28;20052;-27
2024/01/10 10:43:25;;;;;;;5.93;3.70;;;;;;;;;;5061696;28;20045;-28
2024/01/10 10:45:53;;;;;;;4.82;3.33;;;;;;;;;;5055580;28;20111;-27
2024/01/10 10:48:21;;;;;;;4.50;3.33;;;;;;;;;;5068168;28;20048;-27
2024/01/10 10:50:50;;;;;;;4.47;3.33;;;;;;;;;;5062251;28;20053;-30
2024/01/10 10:53:18;;;;;;;5.22;3.50;;;;;;;;;;5066324;28;20044;-27
2024/01/10 10:55:45;;;;;;;6.97;3.50;;;;;;;;;;5073361;28;20103;-27
2024/01/10 10:58:12;;;;;;;4.50;3.08;;;;;;;;;;5073566;28;20493;-29
2024/01/10 11:00:39;;;;;;;4.05;3.50;;;;;;;;;;5073523;28;20134;-29
2024/01/10 11:03:08;;;;;;;5.10;3.50;;;;;;;;;;5067948;28;20049;-27
2024/01/10 11:05:35;;;;;;;5.78;3.13;;;;;;;;;;5071973;28;20052;-30
2024/01/10 11:08:02;;;;;;;5.10;3.50;;;21.20;39.00;;;;;;5071077;28;20075;-30
2024/01/10 11:10:31;;;;;;;7.13;3.35;;;20.60;69.70;;;;;;5065943;28;20040;-27
2024/01/10 11:13:02;;;;;;;4.43;3.15;;;;;;;;;;5073620;28;20098;-26
2024/01/10 11:15:54;;;;;;;5.72;3.25;;;21.20;39.60;;;;;;5072649;28;20052;-27
2024/01/10 11:18:34;;;;;;;5.93;3.20;;;21.10;39.60;;;;;;5071071;28;20052;-27
2024/01/10 11:21:05;;;;;;;5.15;3.35;;;;;;;;;;5052517;28;20056;-28
2024/01/10 11:23:39;;;;;;;4.70;2.97;;;18.30;37.40;;;;;;5052723;28;20052;-29
2024/01/10 11:26:07;;;;;;;4.33;3.10;;;;;;;;;;5061139;28;20706;-31
2024/01/10 11:28:34;;;;;;;6.95;3.00;;;;;;;;;;5071677;28;20059;-27
2024/01/10 11:31:02;;;;;;;4.70;3.15;;;;;;;;;;5072636;28;20052;-29
2024/01/10 11:33:33;;;;;;;5.45;3.35;;;21.30;38.60;;;;;;5072717;28;20093;-28
2024/01/10 11:36:10;;;;;;;7.07;3.20;;;21.40;39.70;;;;;;5072076;28;20432;-27
2024/01/10 11:38:44;;;;;;;6.00;2.97;;;;;;;;;;5072595;28;20041;-28
2024/01/10 11:41:16;;;;;;;3.83;2.87;;;21.30;38.60;;;;;;5071182;28;20060;-28
2024/01/10 11:43:44;;;;;;;4.85;3.22;;;;;;;;;;5072889;28;20056;-27
2024/01/10 11:46:12;;;;;;;4.32;3.05;;;;;;;;;;5072358;28;20047;-27
2024/01/10 11:48:41;;;;;;;5.25;3.00;;;21.40;40.00;;;;;;5072345;28;20055;-27
2024/01/10 11:51:08;;;;;;;5.82;2.75;;;;;;;;;;5071584;28;20102;-28
2024/01/10 11:53:42;;;;;;;5.70;2.72;;;;;;;;;;5072680;28;20048;-27
2024/01/10 11:56:14;;;;;;;4.33;3.20;;;21.40;38.80;;;;;;5063238;28;20390;-27
2024/01/10 11:58:57;;;;;;;3.97;2.58;;;;;;;;;;5052129;28;20791;-31
2024/01/10 12:01:25;;;;;;;5.00;2.70;;;;;;;;;;5051701;28;20052;-27
2024/01/10 12:03:54;;;;;;;4.78;2.70;;;21.40;39.50;;;;;;5065657;28;20464;-30
2024/01/10 12:06:22;;;;;;;4.15;2.72;;;;;;;;;;5071766;28;20056;-28
2024/01/10 12:08:50;;;;;;;4.40;2.90;;;;;;;;;;5071950;28;20091;-28
2024/01/10 12:11:16;;;;;;;11.25;2.90;;;20.80;70.90;;;;;;5071415;28;20064;-29
2024/01/10 12:13:44;;;;;;;3.88;2.67;;;;;;;;;;5051583;28;20057;-29
2024/01/10 12:16:11;;;;;;;4.72;2.85;;;21.40;40.00;;;;;;5052394;28;20053;-29
2024/01/10 12:18:38;;;;;;;4.00;2.72;;;;;;;;;;5052105;28;20118;-29
2024/01/10 12:21:08;;;;;;;3.88;2.70;;;21.50;40.10;;;;;;5059837;28;20044;-29
2024/01/10 12:23:35;;;;;;;3.67;2.90;;;;;;;;;;5060313;28;20555;-29
2024/01/10 12:26:04;;;;;;;4.30;2.65;;;21.40;38.50;;;;;;5062243;28;20497;-30
2024/01/10 12:28:31;;;;;;;3.95;2.60;;;;;;;;;;5058166;28;20053;-29
2024/01/10 12:30:59;;;;;;;4.28;2.72;;;;;;;;;;5062412;28;20041;-31
2024/01/10 12:33:26;;;;;;;4.25;2.75;;;;;;;;;;5060579;28;20106;-28
2024/01/10 12:36:08;;;;;;;4.72;2.67;;;21.40;39.70;;;;;;5060261;28;20040;-29
2024/01/10 12:38:35;;;;;;;4.80;2.70;;;;;;;;;;5062210;28;20049;-31
2024/01/10 12:41:02;;;;;;;3.13;2.50;;;21.40;69.50;;;;;;5059931;28;20394;-29
2024/01/10 12:43:29;;;;;;;4.68;2.47;;;;;;;;;;5061360;28;20497;-29
2024/01/10 12:46:10;;;;;;;3.28;2.63;;;21.40;37.50;;;;;;5063203;28;20102;-29
2024/01/10 12:48:37;;;;;;;3.38;2.40;;;;;;;;;;5062143;28;20485;-30
2024/01/10 12:51:06;;;;;;;3.13;2.50;;;;;;;;;;5066306;28;20045;-29
2024/01/10 12:53:35;;;;;;;5.32;2.63;;;21.40;39.80;;;;;;5071693;28;20074;-29
2024/01/10 12:56:03;;;;;;;5.50;2.60;;;;;;;;;;5071010;28;20048;-30
2024/01/10 12:58:30;;;;;;;4.05;2.35;;;;;;;;;;5071369;28;20067;-29
2024/01/10 13:00:57;;;;;;;4.68;2.58;;;;;;;;;;5070083;28;20048;-29
2024/01/10 13:03:24;;;;;;;3.17;2.47;;;;;;;;;;5065512;28;20467;-29
2024/01/10 13:05:51;;;;;;;3.00;2.28;;;;;;;;;;5071582;28;20109;-29
2024/01/10 13:08:19;;;;;;;3.28;2.58;;;;;;;;;;5071251;28;20045;-29
2024/01/10 13:10:47;;;;;;;3.83;2.80;;;21.30;39.70;;;;;;5071593;28;20048;-32
2024/01/10 13:13:14;;;;;;;3.55;2.42;;;;;;;;;;5071537;28;20060;-31
2024/01/10 13:15:42;;;;;;;2.63;2.13;;;;;;;;;;5071053;28;20052;-28
2024/01/10 13:18:10;;;;;;;3.50;2.53;;;;;;;;;;5069299;28;20036;-29
2024/01/10 13:20:38;;;;;;;5.07;2.60;;;;;;;;;;5060602;28;20128;-28
2024/01/10 13:23:05;;;;;;;3.42;2.65;;;;;;;;;;5051165;28;20107;-29
2024/01/10 13:25:32;;;;;;;2.92;2.30;;;;;;;;;;5051206;28;20057;-29
2024/01/10 13:28:01;;;;;;;3.38;2.50;;;;;;;;;;5051031;28;20405;-29
2024/01/10 13:30:28;;;;;;;4.10;2.50;;;;;;;;;;5051225;28;20049;-29
2024/01/10 13:32:55;;;;;;;2.70;2.20;;;;;;;;;;5051123;28;20045;-29
2024/01/10 13:35:23;;;;;;;4.93;2.60;;;;;;;;;;5060635;28;20052;-28
2024/01/10 13:37:50;;;;;;;3.60;2.53;;;;;;;;;;5070822;28;20048;-32
2024/01/10 13:40:20;;;;;;;3.88;2.53;;;21.50;69.80;;;;;;5070851;28;20493;-29
2024/01/10 13:42:47;;;;;;;4.10;2.45;;;;;;;;;;5063229;28;20059;-31
2024/01/10 13:45:17;;;;;;;4.15;2.60;;;21.30;38.60;;;;;;5072743;28;20052;-29
2024/01/10 13:47:44;;;;;;;4.05;3.00;;;;;;;;;;5074515;28;20053;-29
2024/01/10 13:50:11;;;;;;;3.78;2.88;;;;;;;;;;5074503;28;20052;-31
2024/01/10 13:52:38;;;;;;;4.10;2.80;;;;;;;;;;5065462;28;20102;-29
2024/01/10 13:55:06;;;;;;;6.20;2.95;;;;;;;;;;5073763;28;20497;-29
2024/01/10 13:57:33;;;;;;;3.72;2.70;;;;;;;;;;5074417;28;20060;-29
2024/01/10 14:00:00;;;;;;;3.33;2.42;;;21.50;69.40;;;;;;5074559;28;20053;-29
2024/01/10 14:02:28;;;;;;;4.15;2.50;;;;;;;;;;5074163;28;20498;-29
2024/01/10 14:04:57;;;;;;;4.22;2.40;;;;;;;;;;5074080;28;20582;-31
2024/01/10 14:07:25;;;;;;;3.60;2.95;;;;;;;;;;5072765;28;20055;-29
2024/01/10 14:09:54;;;;;;;4.32;2.90;;;;;;;;;;5073952;28;20087;-30
2024/01/10 14:12:22;;;;;;;3.47;2.65;;;;;;;;;;5071727;28;20063;-29
2024/01/10 14:14:50;;;;;;;3.28;2.53;;;;;;;;;;5064597;28;20099;-28
2024/01/10 14:17:17;;;;;;;5.45;2.60;;;;;;;;;;5064723;28;20073;-29
2024/01/10 14:19:46;;;;;;;3.75;2.85;;;;;;;;;;5065055;28;20048;-29
2024/01/10 14:22:13;;;;;;;5.47;2.72;;;;;;;;;;5061960;28;20052;-29
2024/01/10 14:24:40;;;;;;;4.05;2.83;;;;;;;;;;5062813;28;20456;-32